createdAt,value
2022-09-17T00:00:16.172Z,52.32
2022-09-17T00:02:17.895Z,52.14
2022-09-17T00:04:19.537Z,51.89
2022-09-17T00:06:21.278Z,51.77
2022-09-17T00:08:23.067Z,51.62
2022-09-17T00:10:25.560Z,51.88
2022-09-17T00:12:27.239Z,51.70
2022-09-17T00:14:29.045Z,51.85
2022-09-17T00:16:39.445Z,51.94
2022-09-17T00:18:41.092Z,51.88
2022-09-17T00:20:43.921Z,51.58
2022-09-17T00:22:45.586Z,51.90
2022-09-17T00:24:47.292Z,51.53
2022-09-17T00:26:49.262Z,51.72
2022-09-17T00:28:54.571Z,51.54
2022-09-17T00:30:56.347Z,51.52
2022-09-17T00:32:58.114Z,51.33
2022-09-17T00:34:59.861Z,51.43
2022-09-17T00:37:01.688Z,51.57
2022-09-17T00:39:03.847Z,51.59
2022-09-17T00:41:05.760Z,51.45
2022-09-17T00:43:10.852Z,51.73
2022-09-17T00:45:12.657Z,51.54
2022-09-17T00:47:16.495Z,51.25
2022-09-17T00:49:20.893Z,51.51
2022-09-17T00:51:29.292Z,51.50
2022-09-17T00:53:30.957Z,51.09
2022-09-17T00:55:37.120Z,51.33
2022-09-17T00:57:38.795Z,51.28
2022-09-17T00:59:40.407Z,51.07
2022-09-17T01:01:42.121Z,51.34
2022-09-17T01:03:43.944Z,51.07
2022-09-17T01:06:10.300Z,51.31
2022-09-17T01:08:21.335Z,50.87
2022-09-17T01:10:50.313Z,51.15
2022-09-17T01:13:09.503Z,50.89
2022-09-17T01:15:23.201Z,50.96
2022-09-17T01:17:36.680Z,51.21
2022-09-17T01:20:05.418Z,50.67
2022-09-17T01:22:42.143Z,50.66
2022-09-17T01:24:52.671Z,50.89
2022-09-17T01:27:12.754Z,50.79
2022-09-17T01:29:26.063Z,50.29
2022-09-17T01:31:34.594Z,50.47
2022-09-17T01:33:39.021Z,50.16
2022-09-17T01:35:46.596Z,50.42
2022-09-17T01:38:00.115Z,50.27
2022-09-17T01:40:06.605Z,50.36
2022-09-17T01:42:14.442Z,49.99
2022-09-17T01:44:42.380Z,49.90
2022-09-17T01:46:46.826Z,49.71
2022-09-17T01:48:49.884Z,49.84
2022-09-17T01:51:11.668Z,49.68
2022-09-17T01:53:13.347Z,49.57
2022-09-17T01:55:16.207Z,49.57
2022-09-17T01:57:28.105Z,49.32
2022-09-17T01:59:32.552Z,49.35
2022-09-17T02:01:34.022Z,49.22
2022-09-17T02:03:46.076Z,49.38
2022-09-17T02:06:00.963Z,49.38
2022-09-17T02:08:14.942Z,49.27
2022-09-17T02:10:19.022Z,49.27
2022-09-17T02:12:25.179Z,48.96
2022-09-17T02:14:40.315Z,49.19
2022-09-17T02:16:45.599Z,49.19
2022-09-17T02:18:53.744Z,48.81
2022-09-17T02:21:02.338Z,49.01
2022-09-17T02:23:07.772Z,48.81
2022-09-17T02:25:22.644Z,49.01
2022-09-17T02:27:30.098Z,48.82
2022-09-17T02:29:41.503Z,48.62
2022-09-17T02:31:43.240Z,48.78
2022-09-17T02:33:48.490Z,48.76
2022-09-17T02:35:50.221Z,48.49
2022-09-17T02:37:51.881Z,48.62
2022-09-17T02:39:53.865Z,48.26
2022-09-17T02:42:01.064Z,48.63
2022-09-17T02:44:14.991Z,48.49
2022-09-17T02:46:25.524Z,48.08
2022-09-17T02:48:56.393Z,48.12
2022-09-17T02:51:22.351Z,48.11
2022-09-17T02:53:35.118Z,48.31
2022-09-17T02:56:04.366Z,48.35
2022-09-17T02:58:28.208Z,48.01
2022-09-17T03:00:29.947Z,48.09
2022-09-17T03:02:43.816Z,48.04
2022-09-17T03:04:46.639Z,48.15
2022-09-17T03:06:48.393Z,48.00
2022-09-17T03:08:50.382Z,47.95
2022-09-17T03:10:52.049Z,47.93
2022-09-17T03:12:54.097Z,47.86
2022-09-17T03:14:55.852Z,47.68
2022-09-17T03:16:57.544Z,47.58
2022-09-17T03:18:59.267Z,47.56
2022-09-17T03:21:00.913Z,47.55
2022-09-17T03:23:02.686Z,47.70
2022-09-17T03:25:04.782Z,47.57
2022-09-17T03:27:06.469Z,47.83
2022-09-17T03:29:08.212Z,47.60
2022-09-17T03:31:10.030Z,47.58
2022-09-17T03:33:11.790Z,47.13
2022-09-17T03:35:13.562Z,47.41
2022-09-17T03:37:15.292Z,47.38
2022-09-17T03:39:17.061Z,47.40
2022-09-17T03:41:18.743Z,47.50
2022-09-17T03:43:20.372Z,46.98
2022-09-17T03:45:22.010Z,47.42
2022-09-17T03:47:23.767Z,47.28
2022-09-17T03:49:25.459Z,47.23
2022-09-17T03:51:27.248Z,47.32
2022-09-17T03:53:28.992Z,47.16
2022-09-17T03:55:30.671Z,47.06
2022-09-17T03:57:32.444Z,47.02
2022-09-17T03:59:34.115Z,46.88
2022-09-17T04:01:35.854Z,46.99
2022-09-17T04:03:37.601Z,47.15
2022-09-17T04:05:39.378Z,47.18
2022-09-17T04:07:41.066Z,46.98
2022-09-17T04:09:42.711Z,47.07
2022-09-17T04:11:44.430Z,46.75
2022-09-17T04:13:46.092Z,46.64
2022-09-17T04:15:47.908Z,46.63
2022-09-17T04:17:49.702Z,46.68
2022-09-17T04:19:51.402Z,47.07
2022-09-17T04:21:53.034Z,46.48
2022-09-17T04:23:54.697Z,46.72
2022-09-17T04:25:56.438Z,46.93
2022-09-17T04:27:58.077Z,47.01
2022-09-17T04:29:59.750Z,47.14
2022-09-17T04:32:01.605Z,46.77
2022-09-17T04:34:03.304Z,47.02
2022-09-17T04:36:05.052Z,46.88
2022-09-17T04:38:06.767Z,46.63
2022-09-17T04:40:09.104Z,46.34
2022-09-17T04:42:10.841Z,46.28
2022-09-17T04:44:12.512Z,46.65
2022-09-17T04:46:14.227Z,46.36
2022-09-17T04:48:16.002Z,46.03
2022-09-17T04:50:20.628Z,46.09
2022-09-17T04:52:22.259Z,46.27
2022-09-17T04:54:23.987Z,46.02
2022-09-17T04:56:25.663Z,46.04
2022-09-17T04:58:27.414Z,46.17
2022-09-17T05:00:29.264Z,46.39
2022-09-17T05:02:30.936Z,46.16
2022-09-17T05:04:32.651Z,46.12
2022-09-17T05:06:34.428Z,46.26
2022-09-17T05:08:36.160Z,46.05
2022-09-17T05:10:37.840Z,46.12
2022-09-17T05:12:39.558Z,46.10
2022-09-17T05:14:41.268Z,45.88
2022-09-17T05:16:42.938Z,45.93
2022-09-17T05:18:44.674Z,45.82
2022-09-17T05:20:46.323Z,45.90
2022-09-17T05:22:49.503Z,45.91
2022-09-17T05:24:51.166Z,45.76
2022-09-17T05:26:52.876Z,45.83
2022-09-17T05:28:54.511Z,46.16
2022-09-17T05:30:59.362Z,46.09
2022-09-17T05:33:04.768Z,45.87
2022-09-17T05:35:06.829Z,45.97
2022-09-17T05:37:11.699Z,46.11
2022-09-17T05:39:13.455Z,46.09
2022-09-17T05:41:15.202Z,45.94
2022-09-17T05:43:17.015Z,46.09
2022-09-17T05:45:18.829Z,45.70
2022-09-17T05:47:20.483Z,45.81
2022-09-17T05:49:22.338Z,45.56
2022-09-17T05:51:24.503Z,45.47
2022-09-17T05:53:26.211Z,45.39
2022-09-17T05:55:27.854Z,45.61
2022-09-17T05:57:29.808Z,45.59
2022-09-17T05:59:31.514Z,46.05
2022-09-17T06:01:33.210Z,45.81
2022-09-17T06:03:34.959Z,45.54
2022-09-17T06:05:36.652Z,45.57
2022-09-17T06:07:39.540Z,45.68
2022-09-17T06:09:43.794Z,45.79
2022-09-17T06:11:45.789Z,46.28
2022-09-17T06:13:47.525Z,47.86
2022-09-17T06:15:52.552Z,46.95
2022-09-17T06:17:54.348Z,46.16
2022-09-17T06:19:56.084Z,47.04
2022-09-17T06:21:59.507Z,47.60
2022-09-17T06:24:01.406Z,46.58
2022-09-17T06:26:03.973Z,45.73
2022-09-17T06:28:05.709Z,46.35
2022-09-17T06:30:07.540Z,45.56
2022-09-17T06:32:09.580Z,44.81
2022-09-17T06:34:11.547Z,44.61
2022-09-17T06:36:14.465Z,44.99
2022-09-17T06:38:17.335Z,44.71
2022-09-17T06:40:19.009Z,44.41
2022-09-17T06:42:20.783Z,44.99
2022-09-17T06:44:23.934Z,45.13
2022-09-17T06:46:27.359Z,43.73
2022-09-17T06:48:29.868Z,44.27
2022-09-17T06:50:32.095Z,44.17
2022-09-17T06:52:34.600Z,45.32
2022-09-17T06:54:36.359Z,44.93
2022-09-17T06:56:38.087Z,43.84
2022-09-17T06:58:39.852Z,43.64
2022-09-17T07:00:42.221Z,43.52
2022-09-17T07:02:43.982Z,43.78
2022-09-17T07:04:45.662Z,43.84
2022-09-17T07:06:47.548Z,43.48
2022-09-17T07:08:49.290Z,43.68
2022-09-17T07:10:51.025Z,43.45
2022-09-17T07:12:52.832Z,44.20
2022-09-17T07:14:54.505Z,43.74
2022-09-17T07:16:56.192Z,43.38
2022-09-17T07:18:57.894Z,43.40
2022-09-17T07:21:00.920Z,43.59
2022-09-17T07:23:02.742Z,43.09
2022-09-17T07:25:08.147Z,42.79
2022-09-17T07:27:09.799Z,42.40
2022-09-17T07:29:11.643Z,42.13
2022-09-17T07:31:16.430Z,42.16
2022-09-17T07:33:19.615Z,42.53
2022-09-17T07:35:21.371Z,41.81
2022-09-17T07:37:23.060Z,42.10
2022-09-17T07:39:26.001Z,42.18
2022-09-17T07:41:27.771Z,41.42
2022-09-17T07:43:32.083Z,41.79
2022-09-17T07:45:34.589Z,41.34
2022-09-17T07:47:40.847Z,41.29
2022-09-17T07:49:42.594Z,41.92
2022-09-17T07:51:44.237Z,41.41
2022-09-17T07:53:46.035Z,42.45
2022-09-17T07:55:55.101Z,41.21
2022-09-17T07:57:56.877Z,42.29
2022-09-17T07:59:58.580Z,42.33
2022-09-17T08:02:00.356Z,42.49
2022-09-17T08:04:02.531Z,42.87
2022-09-17T08:06:15.038Z,43.03
2022-09-17T08:08:21.139Z,42.84
2022-09-17T08:10:23.432Z,42.59
2022-09-17T08:12:25.151Z,43.27
2022-09-17T08:14:29.680Z,43.20
2022-09-17T08:16:31.755Z,42.91
2022-09-17T08:18:33.785Z,42.93
2022-09-17T08:20:35.437Z,42.79
2022-09-17T08:22:37.119Z,42.82
2022-09-17T08:24:38.787Z,42.90
2022-09-17T08:26:40.446Z,42.50
2022-09-17T08:28:48.290Z,42.75
2022-09-17T08:30:49.902Z,42.75
2022-09-17T08:32:51.617Z,42.55
2022-09-17T08:34:56.810Z,42.26
2022-09-17T08:36:59.746Z,42.35
2022-09-17T08:39:01.589Z,42.76
2022-09-17T08:41:15.449Z,42.51
2022-09-17T08:43:17.661Z,42.85
2022-09-17T08:45:19.318Z,42.40
2022-09-17T08:47:38.489Z,42.70
2022-09-17T08:49:41.382Z,42.14
2022-09-17T08:51:49.965Z,42.74
2022-09-17T08:54:14.944Z,42.71
2022-09-17T08:56:17.180Z,42.14
2022-09-17T08:58:24.595Z,42.29
2022-09-17T09:00:26.340Z,42.03
2022-09-17T09:02:35.590Z,41.64
2022-09-17T09:05:02.273Z,41.58
2022-09-17T09:07:21.407Z,41.75
2022-09-17T09:09:24.646Z,41.65
2022-09-17T09:11:29.502Z,41.72
2022-09-17T09:13:45.068Z,41.88
2022-09-17T09:15:57.825Z,41.81
2022-09-17T09:18:03.588Z,41.44
2022-09-17T09:20:05.650Z,41.35
2022-09-17T09:22:30.248Z,41.35
2022-09-17T09:24:41.710Z,41.59
2022-09-17T09:26:58.771Z,41.06
2022-09-17T09:29:13.397Z,41.02
2022-09-17T09:31:50.644Z,40.74
2022-09-17T09:33:52.352Z,40.57
2022-09-17T09:35:53.981Z,40.97
2022-09-17T09:38:20.965Z,40.50
2022-09-17T09:40:25.360Z,40.38
2022-09-17T09:42:33.211Z,40.27
2022-09-17T09:44:34.899Z,40.17
2022-09-17T09:46:51.276Z,40.04
2022-09-17T09:48:58.804Z,39.88
2022-09-17T09:51:21.385Z,39.97
2022-09-17T09:54:03.674Z,39.62
2022-09-17T09:56:10.049Z,39.41
2022-09-17T09:58:22.568Z,39.57
2022-09-17T10:00:25.686Z,39.97
2022-09-17T10:02:27.582Z,39.65
2022-09-17T10:04:29.420Z,39.21
2022-09-17T10:06:31.110Z,39.55
2022-09-17T10:08:37.244Z,39.13
2022-09-17T10:10:55.440Z,39.40
2022-09-17T10:13:06.755Z,39.16
2022-09-17T10:15:26.502Z,38.87
2022-09-17T10:17:28.228Z,39.43
2022-09-17T10:19:30.025Z,38.93
2022-09-17T10:21:33.485Z,38.90
2022-09-17T10:23:36.841Z,39.18
2022-09-17T10:25:42.274Z,38.98
2022-09-17T10:27:44.678Z,38.91
2022-09-17T10:29:50.604Z,38.76
2022-09-17T10:31:53.867Z,38.64
2022-09-17T10:34:01.032Z,39.05
2022-09-17T10:36:37.926Z,38.73
2022-09-17T10:38:41.577Z,38.92
2022-09-17T10:40:43.303Z,38.90
2022-09-17T10:42:49.178Z,38.61
2022-09-17T10:44:58.208Z,38.87
2022-09-17T10:47:13.522Z,38.60
2022-09-17T10:49:33.401Z,38.36
2022-09-17T10:51:35.112Z,38.43
2022-09-17T10:54:06.185Z,38.72
2022-09-17T10:56:23.195Z,38.47
2022-09-17T10:58:39.190Z,38.54
2022-09-17T11:01:01.641Z,38.42
2022-09-17T11:03:17.626Z,38.56
2022-09-17T11:05:28.028Z,38.53
2022-09-17T11:07:48.111Z,38.57
2022-09-17T11:10:08.102Z,38.57
2022-09-17T11:12:19.386Z,38.01
2022-09-17T11:14:36.573Z,38.13
2022-09-17T11:16:44.266Z,38.02
2022-09-17T11:18:49.283Z,37.86
2022-09-17T11:20:58.423Z,37.85
2022-09-17T11:23:30.838Z,37.98
2022-09-17T11:25:47.567Z,37.62
2022-09-17T11:28:05.927Z,37.75
2022-09-17T11:30:20.837Z,37.70
2022-09-17T11:32:34.518Z,37.80
2022-09-17T11:34:38.182Z,37.92
2022-09-17T11:36:52.685Z,37.72
2022-09-17T11:38:55.932Z,37.67
2022-09-17T11:41:12.329Z,37.97
2022-09-17T11:43:33.785Z,38.11
2022-09-17T11:45:38.183Z,37.84
2022-09-17T11:47:41.510Z,37.75
2022-09-17T11:49:46.917Z,37.71
2022-09-17T11:51:55.660Z,37.59
2022-09-17T11:54:15.808Z,38.04
2022-09-17T11:56:31.133Z,37.99
2022-09-17T11:58:48.535Z,37.91
2022-09-17T12:00:53.093Z,37.58
2022-09-17T12:02:58.506Z,37.82
2022-09-17T12:05:07.785Z,37.82
2022-09-17T12:07:33.731Z,37.81
2022-09-17T12:09:35.520Z,37.99
2022-09-17T12:11:48.065Z,37.43
2022-09-17T12:13:54.907Z,38.06
2022-09-17T12:16:21.095Z,37.67
2022-09-17T12:18:44.256Z,37.87
2022-09-17T12:20:47.095Z,37.87
2022-09-17T12:22:48.804Z,37.81
2022-09-17T12:24:51.381Z,37.85
2022-09-17T12:27:02.227Z,37.57
2022-09-17T12:29:09.444Z,37.39
2022-09-17T12:31:34.146Z,37.77
2022-09-17T12:33:42.855Z,37.85
2022-09-17T12:36:19.931Z,37.85
2022-09-17T12:38:33.402Z,37.90
2022-09-17T12:41:19.482Z,37.93
2022-09-17T12:43:38.958Z,37.97
2022-09-17T12:45:50.460Z,37.96
2022-09-17T12:47:55.091Z,37.72
2022-09-17T12:50:24.418Z,38.06
2022-09-17T12:52:55.831Z,38.01
2022-09-17T12:55:28.510Z,38.13
2022-09-17T12:57:30.218Z,38.12
2022-09-17T12:59:33.173Z,38.33
2022-09-17T13:01:57.884Z,37.94
2022-09-17T13:04:18.464Z,38.25
2022-09-17T13:06:30.345Z,38.49
2022-09-17T13:08:53.846Z,38.51
2022-09-17T13:11:19.741Z,38.61
2022-09-17T13:13:58.793Z,38.50
2022-09-17T13:16:00.372Z,38.50
2022-09-17T13:18:25.223Z,38.45
2022-09-17T13:20:34.705Z,38.66
2022-09-17T13:22:47.869Z,38.58
2022-09-17T13:25:03.088Z,38.51
2022-09-17T13:27:05.335Z,38.80
2022-09-17T13:29:07.125Z,38.96
2022-09-17T13:31:09.237Z,38.67
2022-09-17T13:33:11.052Z,38.89
2022-09-17T13:35:12.688Z,38.57
2022-09-17T13:37:23.428Z,38.86
2022-09-17T13:39:38.754Z,38.82
2022-09-17T13:41:41.520Z,38.87
2022-09-17T13:43:45.117Z,38.60
2022-09-17T13:46:06.048Z,38.92
2022-09-17T13:48:11.291Z,39.01
2022-09-17T13:50:13.096Z,38.74
2022-09-17T13:52:14.781Z,38.80
2022-09-17T13:54:16.985Z,38.79
2022-09-17T13:56:37.814Z,38.89
2022-09-17T13:58:39.765Z,38.57
2022-09-17T14:01:06.629Z,38.67
2022-09-17T14:03:46.786Z,38.87
2022-09-17T14:05:48.596Z,38.97
2022-09-17T14:07:50.699Z,38.80
2022-09-17T14:10:15.517Z,38.83
2022-09-17T14:12:43.353Z,38.93
2022-09-17T14:14:50.788Z,39.03
2022-09-17T14:16:52.823Z,39.05
2022-09-17T14:19:05.072Z,38.82
2022-09-17T14:21:09.472Z,38.78
2022-09-17T14:23:11.036Z,38.81
2022-09-17T14:25:16.486Z,38.86
2022-09-17T14:27:33.244Z,39.19
2022-09-17T14:29:55.400Z,39.23
2022-09-17T14:31:57.466Z,39.14
2022-09-17T14:33:59.340Z,39.31
2022-09-17T14:36:09.253Z,39.47
2022-09-17T14:38:33.959Z,39.10
2022-09-17T14:40:35.792Z,38.89
2022-09-17T14:42:37.547Z,39.03
2022-09-17T14:44:44.727Z,38.92
2022-09-17T14:46:55.115Z,38.82
2022-09-17T14:49:33.655Z,38.56
2022-09-17T14:51:39.665Z,38.88
2022-09-17T14:53:41.700Z,38.74
2022-09-17T14:55:43.481Z,38.69
2022-09-17T14:57:58.725Z,38.80
2022-09-17T15:00:00.833Z,38.60
2022-09-17T15:02:05.161Z,39.00
2022-09-17T15:04:12.637Z,38.85
2022-09-17T15:06:23.323Z,38.81
2022-09-17T15:08:26.922Z,38.90
2022-09-17T15:10:28.681Z,39.02
2022-09-17T15:12:30.747Z,38.73
2022-09-17T15:14:34.663Z,38.91
2022-09-17T15:16:36.929Z,39.01
2022-09-17T15:18:41.422Z,39.00
2022-09-17T15:20:43.033Z,39.00
2022-09-17T15:22:45.211Z,38.99
2022-09-17T15:24:55.778Z,39.18
2022-09-17T15:26:58.529Z,39.20
2022-09-17T15:29:00.184Z,39.18
2022-09-17T15:31:03.214Z,39.28
2022-09-17T15:33:05.114Z,39.40
2022-09-17T15:35:16.075Z,39.35
2022-09-17T15:37:18.826Z,39.60
2022-09-17T15:39:30.784Z,39.69
2022-09-17T15:41:34.067Z,39.39
2022-09-17T15:43:37.912Z,39.54
2022-09-17T15:45:39.927Z,39.73
2022-09-17T15:47:56.805Z,39.54
2022-09-17T15:50:11.204Z,39.48
2022-09-17T15:52:30.119Z,39.69
2022-09-17T15:54:32.231Z,39.59
2022-09-17T15:56:35.556Z,39.75
2022-09-17T15:58:41.059Z,39.61
2022-09-17T16:00:42.811Z,39.93
2022-09-17T16:02:44.530Z,39.92
2022-09-17T16:04:46.341Z,39.85
2022-09-17T16:07:01.025Z,39.83
2022-09-17T16:09:02.664Z,39.73
2022-09-17T16:11:04.401Z,39.67
2022-09-17T16:13:06.132Z,40.06
2022-09-17T16:15:08.550Z,39.97
2022-09-17T16:17:27.628Z,39.71
2022-09-17T16:19:29.296Z,40.25
2022-09-17T16:21:31.163Z,39.85
2022-09-17T16:23:32.870Z,39.97
2022-09-17T16:25:34.822Z,39.78
2022-09-17T16:27:48.053Z,39.77
2022-09-17T16:29:50.249Z,39.96
2022-09-17T16:31:52.127Z,39.93
2022-09-17T16:33:54.032Z,40.22
2022-09-17T16:35:59.334Z,39.91
2022-09-17T16:38:01.066Z,40.09
2022-09-17T16:40:03.233Z,40.26
2022-09-17T16:42:05.208Z,40.31
2022-09-17T16:44:07.086Z,40.08
2022-09-17T16:46:10.647Z,40.30
2022-09-17T16:48:12.508Z,40.34
2022-09-17T16:50:15.732Z,40.34
2022-09-17T16:52:17.510Z,40.53
2022-09-17T16:54:19.288Z,40.16
2022-09-17T16:56:21.140Z,40.54
2022-09-17T16:58:22.908Z,40.23
2022-09-17T17:00:25.053Z,40.30
2022-09-17T17:02:26.851Z,40.43
2022-09-17T17:04:28.826Z,40.60
2022-09-17T17:06:30.583Z,40.44
2022-09-17T17:08:32.973Z,40.76
2022-09-17T17:10:35.183Z,40.67
2022-09-17T17:12:37.391Z,40.76
2022-09-17T17:14:39.065Z,40.60
2022-09-17T17:16:40.884Z,40.44
2022-09-17T17:18:46.506Z,40.63
2022-09-17T17:20:48.385Z,40.59
2022-09-17T17:22:50.293Z,40.43
2022-09-17T17:24:52.304Z,40.58
2022-09-17T17:26:54.203Z,40.80
2022-09-17T17:28:56.334Z,40.74
2022-09-17T17:30:58.508Z,40.92
2022-09-17T17:33:00.393Z,41.00
2022-09-17T17:35:02.639Z,40.69
2022-09-17T17:37:04.409Z,40.89
2022-09-17T17:39:06.355Z,41.19
2022-09-17T17:41:11.598Z,41.16
2022-09-17T17:43:13.417Z,40.89
2022-09-17T17:45:15.577Z,41.13
2022-09-17T17:47:17.668Z,41.02
2022-09-17T17:49:19.635Z,40.84
2022-09-17T17:51:21.369Z,41.18
2022-09-17T17:53:23.575Z,41.07
2022-09-17T17:55:25.486Z,41.29
2022-09-17T17:57:27.207Z,41.08
2022-09-17T17:59:28.858Z,41.28
2022-09-17T18:01:31.015Z,41.05
2022-09-17T18:03:33.262Z,41.05
2022-09-17T18:05:35.031Z,40.90
2022-09-17T18:07:36.811Z,40.94
2022-09-17T18:09:38.912Z,41.18
2022-09-17T18:11:40.754Z,40.96
2022-09-17T18:13:42.577Z,41.23
2022-09-17T18:15:58.086Z,41.12
2022-09-17T18:17:59.952Z,41.21
2022-09-17T18:20:02.241Z,40.98
2022-09-17T18:22:04.358Z,40.80
2022-09-17T18:24:06.144Z,41.03
2022-09-17T18:26:11.293Z,41.38
2022-09-17T18:28:12.981Z,41.24
2022-09-17T18:30:14.923Z,41.14
2022-09-17T18:32:16.782Z,41.01
2022-09-17T18:34:18.417Z,41.18
2022-09-17T18:36:20.284Z,41.00
2022-09-17T18:38:22.101Z,40.98
2022-09-17T18:40:24.007Z,40.95
2022-09-17T18:42:28.803Z,41.04
2022-09-17T18:44:30.799Z,41.15
2022-09-17T18:46:33.141Z,40.74
2022-09-17T18:48:36.692Z,40.77
2022-09-17T18:50:38.539Z,41.06
2022-09-17T18:52:40.458Z,41.09
2022-09-17T18:54:42.557Z,40.84
2022-09-17T18:56:44.349Z,40.79
2022-09-17T18:58:46.623Z,40.72
2022-09-17T19:00:48.332Z,40.77
2022-09-17T19:02:50.517Z,40.97
2022-09-17T19:04:52.391Z,41.13
2022-09-17T19:06:54.076Z,40.60
2022-09-17T19:09:00.992Z,40.64
2022-09-17T19:11:03.260Z,40.77
2022-09-17T19:13:04.979Z,40.85
2022-09-17T19:15:07.505Z,40.99
2022-09-17T19:17:09.320Z,40.87
2022-09-17T19:19:11.064Z,40.72
2022-09-17T19:21:14.613Z,40.75
2022-09-17T19:23:16.270Z,40.99
2022-09-17T19:25:18.244Z,41.10
2022-09-17T19:27:19.962Z,41.20
2022-09-17T19:29:21.687Z,41.16
2022-09-17T19:31:24.126Z,40.92
2022-09-17T19:33:26.191Z,41.15
2022-09-17T19:35:28.008Z,40.79
2022-09-17T19:37:29.969Z,41.08
2022-09-17T19:39:31.873Z,41.07
2022-09-17T19:41:33.535Z,40.86
2022-09-17T19:43:35.249Z,41.10
2022-09-17T19:45:36.961Z,40.79
2022-09-17T19:47:38.636Z,41.13
2022-09-17T19:49:40.329Z,41.05
2022-09-17T19:51:41.979Z,40.92
2022-09-17T19:53:43.845Z,41.08
2022-09-17T19:55:45.747Z,40.87
2022-09-17T19:57:47.390Z,41.13
2022-09-17T19:59:49.079Z,40.88
2022-09-17T20:01:50.768Z,41.04
2022-09-17T20:03:52.586Z,41.09
2022-09-17T20:06:01.414Z,41.11
2022-09-17T20:08:04.008Z,40.96
2022-09-17T20:10:06.308Z,41.08
2022-09-17T20:12:08.004Z,40.92
2022-09-17T20:14:09.937Z,41.15
2022-09-17T20:16:19.325Z,41.04
2022-09-17T20:18:23.466Z,41.06
2022-09-17T20:20:25.314Z,41.19
2022-09-17T20:22:27.111Z,41.16
2022-09-17T20:24:28.840Z,41.36
2022-09-17T20:26:30.514Z,41.26
2022-09-17T20:28:32.569Z,41.07
2022-09-17T20:30:34.197Z,41.36
2022-09-17T20:32:35.848Z,41.26
2022-09-17T20:34:37.443Z,41.05
2022-09-17T20:36:39.190Z,41.30
2022-09-17T20:41:03.789Z,41.17
2022-09-17T20:43:05.469Z,41.20
2022-09-17T20:45:07.395Z,41.03
2022-09-17T20:47:09.097Z,41.43
2022-09-17T20:49:10.828Z,41.46
2022-09-17T20:51:14.172Z,41.30
2022-09-17T20:53:15.822Z,41.55
2022-09-17T20:55:17.436Z,41.52
2022-09-17T20:57:19.101Z,41.66
2022-09-17T20:59:20.856Z,41.88
2022-09-17T21:01:24.318Z,41.50
2022-09-17T21:03:26.080Z,41.52
2022-09-17T21:05:27.797Z,41.43
2022-09-17T21:07:29.422Z,41.57
2022-09-17T21:09:31.021Z,41.64
2022-09-17T21:11:32.744Z,41.83
2022-09-17T21:13:36.108Z,41.86
2022-09-17T21:15:37.863Z,41.99
2022-09-17T21:17:39.564Z,42.00
2022-09-17T21:19:41.289Z,42.09
2022-09-17T21:21:42.992Z,42.02
2022-09-17T21:23:44.651Z,42.01
2022-09-17T21:25:46.280Z,42.14
2022-09-17T21:27:47.904Z,41.79
2022-09-17T21:29:49.580Z,41.92
2022-09-17T21:31:51.311Z,42.04
2022-09-17T21:33:54.418Z,42.02
2022-09-17T21:35:56.113Z,42.03
2022-09-17T21:37:57.834Z,42.02
2022-09-17T21:39:59.544Z,41.80
2022-09-17T21:42:01.204Z,42.27
2022-09-17T21:44:02.789Z,42.06
2022-09-17T21:46:06.106Z,42.04
2022-09-17T21:48:07.796Z,42.31
2022-09-17T21:50:09.604Z,42.24
2022-09-17T21:52:11.241Z,42.07
2022-09-17T21:54:14.066Z,42.19
2022-09-17T21:56:16.518Z,42.17
2022-09-17T21:58:18.194Z,42.54
2022-09-17T22:00:23.214Z,42.33
2022-09-17T22:02:25.311Z,42.09
2022-09-17T22:04:26.982Z,42.12
2022-09-17T22:06:30.107Z,42.26
2022-09-17T22:08:32.372Z,42.30
2022-09-17T22:10:34.059Z,42.30
2022-09-17T22:12:35.775Z,42.53
2022-09-17T22:14:37.447Z,42.56
2022-09-17T22:16:41.118Z,42.38
2022-09-17T22:18:46.113Z,42.40
2022-09-17T22:20:47.767Z,42.56
2022-09-17T22:22:49.448Z,42.59
2022-09-17T22:24:51.128Z,42.38
2022-09-17T22:26:57.394Z,42.50
2022-09-17T22:29:07.674Z,42.50
2022-09-17T22:31:10.874Z,42.50
2022-09-17T22:33:12.563Z,42.50
2022-09-17T22:35:14.276Z,42.21
2022-09-17T22:37:15.924Z,42.49
2022-09-17T22:39:18.075Z,42.73
2022-09-17T22:41:23.730Z,42.57
2022-09-17T22:43:25.376Z,42.64
2022-09-17T22:45:28.460Z,42.71
2022-09-17T22:47:30.151Z,42.68
2022-09-17T22:49:31.869Z,42.74
2022-09-17T22:51:33.534Z,42.66
2022-09-17T22:53:35.549Z,42.50
2022-09-17T22:55:37.165Z,42.88
2022-09-17T22:57:38.800Z,42.58
2022-09-17T22:59:40.534Z,42.79
2022-09-17T23:01:42.334Z,42.68
2022-09-17T23:03:44.385Z,42.92
2022-09-17T23:05:46.136Z,42.63
2022-09-17T23:07:47.755Z,42.96
2022-09-17T23:09:49.418Z,42.92
2022-09-17T23:11:51.047Z,42.75
2022-09-17T23:13:52.855Z,42.62
2022-09-17T23:15:54.921Z,43.05
2022-09-17T23:17:56.595Z,42.67
2022-09-17T23:19:58.259Z,42.62
2022-09-17T23:21:59.914Z,42.83
2022-09-17T23:24:01.965Z,42.96
2022-09-17T23:26:05.177Z,42.60
2022-09-17T23:28:06.779Z,42.86
2022-09-17T23:30:09.106Z,43.01
2022-09-17T23:32:10.761Z,42.81
2022-09-17T23:34:12.393Z,42.84
2022-09-17T23:36:16.010Z,43.08
2022-09-17T23:38:17.642Z,42.94
2022-09-17T23:40:19.397Z,42.70
2022-09-17T23:42:21.090Z,43.20
2022-09-17T23:44:22.698Z,42.92
2022-09-17T23:46:25.233Z,42.81
2022-09-17T23:48:26.971Z,42.82
2022-09-17T23:50:28.652Z,42.77
2022-09-17T23:52:30.301Z,43.10
2022-09-17T23:54:31.929Z,42.98
2022-09-17T23:56:33.646Z,42.85
2022-09-17T23:58:35.296Z,42.98
